Eric R. Thornton — WDH3837 — position and weather

sailwx.info

Track history (hours):
 
Tides and Currents Weather Stations Pressure Air Temp Water Temp Dewpoint Dewpoint Depression Visibility Wind Speed Wind Dir Waves Ship Positions

Eric R. Thornton

Owner: Marine Steel Transport Line, LLC, Allendale, NJ. More information available from US FCC via Universal Licensing System and Coast Guard Vessel Documentation Center.

Last reported at 2017-Oct-12 19:52 UTC. Time now 2017-Oct-17 10:01 UTC.
Position N 40°38' W 074°09'.

Length 29 m; draft 3.6 m.

Type: Tug. MMSI: 367611450.

Date/timePositionNaut miles runAvg speedWind from/ knotsBaromVisibWave heightAir tempDewpointWater temp
2017-Oct-12 19:52N 40°38' W 074°09'0 0.0
2017-Oct-12 19:22N 40°38' W 074°09'0 0.0
2017-Oct-12 18:52N 40°38' W 074°09'0 0.0
2017-Oct-12 18:29N 40°38' W 074°09'0 0.0
2017-Oct-12 17:59N 40°38' W 074°09'0 0.0
2017-Oct-12 17:28N 40°38' W 074°09'0 0.0
2017-Oct-12 16:58N 40°38' W 074°09'0 0.0
2017-Oct-12 16:22N 40°38' W 074°09'0 0.0
2017-Oct-12 15:58N 40°38' W 074°09'0 0.0
2017-Oct-12 15:28N 40°38' W 074°09'0 0.0
2017-Oct-12 14:58N 40°38' W 074°09'0 0.0
2017-Oct-12 14:07N 40°38' W 074°09'0 0.0
2017-Oct-12 13:49N 40°38' W 074°09'0 0.0
2017-Oct-12 13:29N 40°38' W 074°09'0 0.0
2017-Oct-12 12:55N 40°38' W 074°09'0 0.0
2017-Oct-12 12:25N 40°38' W 074°09'0 0.0
2017-Oct-12 11:49N 40°38' W 074°09'0 0.0
2017-Oct-12 11:28N 40°38' W 074°09'0 0.0
2017-Oct-12 10:58N 40°38' W 074°09'0 0.0
2017-Oct-12 10:28N 40°38' W 074°09'0 0.1
2017-Oct-12 09:59N 40°38' W 074°09'2 3.9
2017-Oct-12 09:30N 40°39' W 074°07'2 3.9
2017-Oct-12 09:01N 40°39' W 074°05'3 5.8
2017-Oct-12 08:31N 40°41' W 074°02'3 6.6
2017-Oct-12 08:00N 40°43' W 073°58'2 3.1
2017-Oct-12 07:30N 40°44' W 073°56'1 2.4
2017-Oct-12 07:00N 40°43' W 073°56'1 1.4
2017-Oct-12 06:30N 40°44' W 073°56'1 1.4
2017-Oct-12 06:00N 40°43' W 073°56'1 1.5
2017-Oct-12 05:30N 40°44' W 073°56'3 5.1
2017-Oct-12 05:00N 40°42' W 073°59'4 7.5
2017-Oct-12 04:30N 40°40' W 074°03'3 5.6
2017-Oct-12 04:00N 40°39' W 074°06'2 4.9
2017-Oct-12 03:30N 40°39' W 074°09'3 5.4
2017-Oct-12 03:00N 40°37' W 074°12'4 6.0
2017-Oct-12 02:22N 40°33' W 074°14'0 0.4
2017-Oct-12 01:59N 40°33' W 074°13'4 7.5
2017-Oct-12 01:30N 40°37' W 074°12'3 5.3
2017-Oct-12 01:00N 40°38' W 074°09'  
2017-Oct-07 08:08N 40°37' W 074°12'1 6.8
2017-Oct-07 07:59N 40°36' W 074°12'2 3.2
2017-Oct-07 07:13N 40°34' W 074°14'1 5.3
2017-Oct-07 06:59N 40°35' W 074°13'3 7.0
2017-Oct-07 06:30N 40°38' W 074°12'3 6.1
2017-Oct-07 06:00N 40°40' W 074°09'2 3.4
2017-Oct-07 05:30N 40°41' W 074°08'3 5.1
2017-Oct-07 05:00N 40°39' W 074°07'4 8.4
2017-Oct-07 04:30N 40°40' W 074°02'510.6
2017-Oct-07 04:00N 40°44' W 073°57'2 3.2
2017-Oct-07 03:27N 40°43' W 073°56'1 1.9
2017-Oct-07 03:00N 40°44' W 073°56'1 2.7
2017-Oct-07 02:31N 40°44' W 073°58'4 7.9
2017-Oct-07 02:00N 40°41' W 074°01'3 6.3
2017-Oct-07 01:30N 40°39' W 074°05'3 6.5
2017-Oct-07 00:59N 40°38' W 074°09'0 0.3
2017-Oct-07 00:24N 40°38' W 074°09'0 0.0
2017-Oct-07 00:00N 40°38' W 074°09'0 0.0
2017-Oct-06 23:29N 40°38' W 074°09'0 0.0
2017-Oct-06 22:59N 40°38' W 074°09'0 0.0
2017-Oct-06 22:20N 40°38' W 074°09'0 0.0
2017-Oct-06 21:59N 40°38' W 074°09'0 0.0
2017-Oct-06 21:29N 40°38' W 074°09'0 0.0
2017-Oct-06 20:59N 40°38' W 074°09'0 0.0
2017-Oct-06 20:29N 40°38' W 074°09'0 0.0
2017-Oct-06 19:59N 40°38' W 074°09'0 0.0
2017-Oct-06 19:29N 40°38' W 074°09'0 0.0
2017-Oct-06 18:59N 40°38' W 074°09'0 0.0
2017-Oct-06 18:23N 40°38' W 074°09'0 0.0
2017-Oct-06 17:59N 40°38' W 074°09'0 0.0
2017-Oct-06 17:29N 40°38' W 074°09'0 0.0
2017-Oct-06 16:59N 40°38' W 074°09'0 0.0
2017-Oct-06 16:23N 40°38' W 074°09'0 0.0
2017-Oct-06 15:56N 40°38' W 074°09'0 0.0
2017-Oct-06 15:26N 40°38' W 074°09'0 0.0
2017-Oct-06 14:59N 40°38' W 074°09'0 0.0
2017-Oct-06 14:14N 40°38' W 074°09'0 0.0
2017-Oct-06 13:59N 40°38' W 074°09'0 0.0
2017-Oct-06 13:29N 40°38' W 074°09'0 0.0
2017-Oct-06 12:47N 40°38' W 074°09'0 0.0
2017-Oct-06 12:29N 40°38' W 074°09'0 0.0
2017-Oct-06 11:59N 40°38' W 074°09'0 0.0
2017-Oct-06 11:29N 40°38' W 074°09'0 0.0
2017-Oct-06 10:59N 40°38' W 074°09'0 0.0
2017-Oct-06 10:29N 40°38' W 074°09'0 0.0
2017-Oct-06 09:56N 40°38' W 074°09'0 0.0
2017-Oct-06 09:26N 40°38' W 074°09'0 0.0
2017-Oct-06 08:59N 40°38' W 074°09'0 0.0
2017-Oct-06 08:29N 40°38' W 074°09'0 0.0
2017-Oct-06 07:59N 40°38' W 074°09'0 0.0
2017-Oct-06 07:29N 40°38' W 074°09'0 0.0
2017-Oct-06 06:59N 40°38' W 074°09'0 0.1
2017-Oct-06 06:30N 40°38' W 074°09'3 5.8
2017-Oct-06 06:00N 40°41' W 074°08'2 3.7
2017-Oct-06 05:30N 40°39' W 074°09'1 2.4
2017-Oct-06 05:00N 40°39' W 074°07'2 3.4
2017-Oct-06 04:30N 40°39' W 074°05'2 4.6
2017-Oct-06 04:00N 40°40' W 074°03'3 6.0
2017-Oct-06 03:30N 40°42' W 073°60'3 5.7
2017-Oct-06 03:00N 40°44' W 073°57'2 3.7
2017-Oct-06 02:30N 40°43' W 073°55'0 0.5
2017-Oct-06 02:00N 40°43' W 073°56'1 2.6
2017-Oct-06 01:30N 40°44' W 073°57'4 8.0
2017-Oct-06 01:00N 40°42' W 074°00'5 9.9
2017-Oct-06 00:30N 40°39' W 074°06'3 0.1
2017-Oct-04 03:30N 40°38' W 074°09'2 4.6
2017-Oct-04 03:00N 40°39' W 074°06'5 9.2
2017-Oct-04 02:30N 40°41' W 074°01'5 9.3
2017-Oct-04 02:01N 40°44' W 073°57'1 2.5
2017-Oct-04 01:30N 40°43' W 073°56'1 2.3
2017-Oct-04 01:00N 40°44' W 073°56'1 2.4
2017-Oct-04 00:30N 40°44' W 073°58'4 7.4
2017-Oct-04 00:00N 40°41' W 074°01'3 6.6
2017-Oct-03 23:30N 40°39' W 074°05'3 6.4
2017-Oct-03 23:01N 40°39' W 074°09'3 5.1
2017-Oct-03 22:30N 40°41' W 074°08'3 5.4
2017-Oct-03 21:58N 40°38' W 074°09'0 0.0
2017-Oct-03 20:41N 40°38' W 074°09'0 0.0
2017-Oct-03 20:29N 40°38' W 074°09'0 0.0
2017-Oct-03 19:53N 40°38' W 074°09'0 0.0
2017-Oct-03 19:30N 40°38' W 074°09'0 0.0
2017-Oct-03 19:00N 40°38' W 074°09'1 2.9
2017-Oct-03 18:31N 40°39' W 074°11'3 6.1
2017-Oct-03 18:00N 40°36' W 074°12'2 4.6
2017-Oct-03 17:30N 40°34' W 074°14'1 2.5
2017-Oct-03 17:00N 40°34' W 074°13'5 9.3
2017-Oct-03 16:30N 40°39' W 074°11'4 8.6
2017-Oct-03 16:00N 40°39' W 074°05'5 9.6
2017-Oct-03 15:31N 40°42' W 074°00'611.6
2017-Oct-03 15:00N 40°47' W 073°56'4 3.4
2017-Oct-03 13:59N 40°49' W 073°52'2 3.4
2017-Oct-03 13:30N 40°48' W 073°54'2 4.6
2017-Oct-03 13:00N 40°46' W 073°56'3 5.9
2017-Oct-03 12:31N 40°44' W 073°58'3 6.7
2017-Oct-03 12:00N 40°41' W 074°01'4 7.1
2017-Oct-03 11:30N 40°39' W 074°05'3 5.4
2017-Oct-03 11:00N 40°39' W 074°08'1 1.4
2017-Oct-03 10:20N 40°38' W 074°09'0 0.0
2017-Oct-03 09:56N 40°38' W 074°09'0 0.0
2017-Oct-03 09:29N 40°38' W 074°09'0 0.0
2017-Oct-03 08:59N 40°38' W 074°09'0 0.0
2017-Oct-03 08:29N 40°38' W 074°09'0 0.0
2017-Oct-03 07:59N 40°38' W 074°09'0 0.0
2017-Oct-03 07:20N 40°38' W 074°09'0 0.0
2017-Oct-03 06:56N 40°38' W 074°09'0 0.0
2017-Oct-03 06:26N 40°38' W 074°09'0 0.0
2017-Oct-03 05:56N 40°38' W 074°09'0 0.1
2017-Oct-03 05:30N 40°38' W 074°09'1 2.9
2017-Oct-03 05:00N 40°40' W 074°09'1 2.8
2017-Oct-03 04:30N 40°41' W 074°08'1 1.7
2017-Oct-03 04:01N 40°40' W 074°08'2 3.6
2017-Oct-03 03:31N 40°39' W 074°09'2 3.8
2017-Oct-03 03:00N 40°39' W 074°06'2 4.0
2017-Oct-03 02:30N 40°40' W 074°04'3 5.6
2017-Oct-03 02:00N 40°42' W 074°01'3 6.5
2017-Oct-03 01:31N 40°44' W 073°58'2 3.6
2017-Oct-03 01:00N 40°44' W 073°56'0 0.4
2017-Oct-03 00:30N 40°43' W 073°56'2 3.8
2017-Oct-03 00:00N 40°44' W 073°58'5 8.8
2017-Oct-02 23:29N 40°41' W 074°02'4 9.2
2017-Oct-02 23:00N 40°39' W 074°07'  
Track history (hours):
 
Tides and Currents Weather Stations Pressure Air Temp Water Temp Dewpoint Dewpoint Depression Visibility Wind Speed Wind Dir Waves Ship Positions

Eric R. Thornton

Owner: Marine Steel Transport Line, LLC, Allendale, NJ. More information available from US FCC via Universal Licensing System and Coast Guard Vessel Documentation Center.

Last reported at 2017-Oct-12 19:52 UTC. Time now 2017-Oct-17 10:01 UTC.
Position N 40°38' W 074°09'.

Length 29 m; draft 3.6 m.

Type: Tug. MMSI: 367611450.

Date/timePositionNaut miles runAvg speedWind from/ knotsBaromVisibWave heightAir tempDewpointWater temp
2017-Oct-12 19:52N 40°38' W 074°09'0 0.0
2017-Oct-12 19:22N 40°38' W 074°09'0 0.0
2017-Oct-12 18:52N 40°38' W 074°09'0 0.0
2017-Oct-12 18:29N 40°38' W 074°09'0 0.0
2017-Oct-12 17:59N 40°38' W 074°09'0 0.0
2017-Oct-12 17:28N 40°38' W 074°09'0 0.0
2017-Oct-12 16:58N 40°38' W 074°09'0 0.0
2017-Oct-12 16:22N 40°38' W 074°09'0 0.0
2017-Oct-12 15:58N 40°38' W 074°09'0 0.0
2017-Oct-12 15:28N 40°38' W 074°09'0 0.0
2017-Oct-12 14:58N 40°38' W 074°09'0 0.0
2017-Oct-12 14:07N 40°38' W 074°09'0 0.0
2017-Oct-12 13:49N 40°38' W 074°09'0 0.0
2017-Oct-12 13:29N 40°38' W 074°09'0 0.0
2017-Oct-12 12:55N 40°38' W 074°09'0 0.0
2017-Oct-12 12:25N 40°38' W 074°09'0 0.0
2017-Oct-12 11:49N 40°38' W 074°09'0 0.0
2017-Oct-12 11:28N 40°38' W 074°09'0 0.0
2017-Oct-12 10:58N 40°38' W 074°09'0 0.0
2017-Oct-12 10:28N 40°38' W 074°09'0 0.1
2017-Oct-12 09:59N 40°38' W 074°09'2 3.9
2017-Oct-12 09:30N 40°39' W 074°07'2 3.9
2017-Oct-12 09:01N 40°39' W 074°05'3 5.8
2017-Oct-12 08:31N 40°41' W 074°02'3 6.6
2017-Oct-12 08:00N 40°43' W 073°58'2 3.1
2017-Oct-12 07:30N 40°44' W 073°56'1 2.4
2017-Oct-12 07:00N 40°43' W 073°56'1 1.4
2017-Oct-12 06:30N 40°44' W 073°56'1 1.4
2017-Oct-12 06:00N 40°43' W 073°56'1 1.5
2017-Oct-12 05:30N 40°44' W 073°56'3 5.1
2017-Oct-12 05:00N 40°42' W 073°59'4 7.5
2017-Oct-12 04:30N 40°40' W 074°03'3 5.6
2017-Oct-12 04:00N 40°39' W 074°06'2 4.9
2017-Oct-12 03:30N 40°39' W 074°09'3 5.4
2017-Oct-12 03:00N 40°37' W 074°12'4 6.0
2017-Oct-12 02:22N 40°33' W 074°14'0 0.4
2017-Oct-12 01:59N 40°33' W 074°13'4 7.5
2017-Oct-12 01:30N 40°37' W 074°12'3 5.3
2017-Oct-12 01:00N 40°38' W 074°09'  
2017-Oct-07 08:08N 40°37' W 074°12'1 6.8
2017-Oct-07 07:59N 40°36' W 074°12'2 3.2
2017-Oct-07 07:13N 40°34' W 074°14'1 5.3
2017-Oct-07 06:59N 40°35' W 074°13'3 7.0
2017-Oct-07 06:30N 40°38' W 074°12'3 6.1
2017-Oct-07 06:00N 40°40' W 074°09'2 3.4
2017-Oct-07 05:30N 40°41' W 074°08'3 5.1
2017-Oct-07 05:00N 40°39' W 074°07'4 8.4
2017-Oct-07 04:30N 40°40' W 074°02'510.6
2017-Oct-07 04:00N 40°44' W 073°57'2 3.2
2017-Oct-07 03:27N 40°43' W 073°56'1 1.9
2017-Oct-07 03:00N 40°44' W 073°56'1 2.7
2017-Oct-07 02:31N 40°44' W 073°58'4 7.9
2017-Oct-07 02:00N 40°41' W 074°01'3 6.3
2017-Oct-07 01:30N 40°39' W 074°05'3 6.5
2017-Oct-07 00:59N 40°38' W 074°09'0 0.3
2017-Oct-07 00:24N 40°38' W 074°09'0 0.0
2017-Oct-07 00:00N 40°38' W 074°09'0 0.0
2017-Oct-06 23:29N 40°38' W 074°09'0 0.0
2017-Oct-06 22:59N 40°38' W 074°09'0 0.0
2017-Oct-06 22:20N 40°38' W 074°09'0 0.0
2017-Oct-06 21:59N 40°38' W 074°09'0 0.0
2017-Oct-06 21:29N 40°38' W 074°09'0 0.0
2017-Oct-06 20:59N 40°38' W 074°09'0 0.0
2017-Oct-06 20:29N 40°38' W 074°09'0 0.0
2017-Oct-06 19:59N 40°38' W 074°09'0 0.0
2017-Oct-06 19:29N 40°38' W 074°09'0 0.0
2017-Oct-06 18:59N 40°38' W 074°09'0 0.0
2017-Oct-06 18:23N 40°38' W 074°09'0 0.0
2017-Oct-06 17:59N 40°38' W 074°09'0 0.0
2017-Oct-06 17:29N 40°38' W 074°09'0 0.0
2017-Oct-06 16:59N 40°38' W 074°09'0 0.0
2017-Oct-06 16:23N 40°38' W 074°09'0 0.0
2017-Oct-06 15:56N 40°38' W 074°09'0 0.0
2017-Oct-06 15:26N 40°38' W 074°09'0 0.0
2017-Oct-06 14:59N 40°38' W 074°09'0 0.0
2017-Oct-06 14:14N 40°38' W 074°09'0 0.0
2017-Oct-06 13:59N 40°38' W 074°09'0 0.0
2017-Oct-06 13:29N 40°38' W 074°09'0 0.0
2017-Oct-06 12:47N 40°38' W 074°09'0 0.0
2017-Oct-06 12:29N 40°38' W 074°09'0 0.0
2017-Oct-06 11:59N 40°38' W 074°09'0 0.0
2017-Oct-06 11:29N 40°38' W 074°09'0 0.0
2017-Oct-06 10:59N 40°38' W 074°09'0 0.0
2017-Oct-06 10:29N 40°38' W 074°09'0 0.0
2017-Oct-06 09:56N 40°38' W 074°09'0 0.0
2017-Oct-06 09:26N 40°38' W 074°09'0 0.0
2017-Oct-06 08:59N 40°38' W 074°09'0 0.0
2017-Oct-06 08:29N 40°38' W 074°09'0 0.0
2017-Oct-06 07:59N 40°38' W 074°09'0 0.0
2017-Oct-06 07:29N 40°38' W 074°09'0 0.0
2017-Oct-06 06:59N 40°38' W 074°09'0 0.1
2017-Oct-06 06:30N 40°38' W 074°09'3 5.8
2017-Oct-06 06:00N 40°41' W 074°08'2 3.7
2017-Oct-06 05:30N 40°39' W 074°09'1 2.4
2017-Oct-06 05:00N 40°39' W 074°07'2 3.4
2017-Oct-06 04:30N 40°39' W 074°05'2 4.6
2017-Oct-06 04:00N 40°40' W 074°03'3 6.0
2017-Oct-06 03:30N 40°42' W 073°60'3 5.7
2017-Oct-06 03:00N 40°44' W 073°57'2 3.7
2017-Oct-06 02:30N 40°43' W 073°55'0 0.5
2017-Oct-06 02:00N 40°43' W 073°56'1 2.6
2017-Oct-06 01:30N 40°44' W 073°57'4 8.0
2017-Oct-06 01:00N 40°42' W 074°00'5 9.9
2017-Oct-06 00:30N 40°39' W 074°06'3 0.1
2017-Oct-04 03:30N 40°38' W 074°09'2 4.6
2017-Oct-04 03:00N 40°39' W 074°06'5 9.2
2017-Oct-04 02:30N 40°41' W 074°01'5 9.3
2017-Oct-04 02:01N 40°44' W 073°57'1 2.5
2017-Oct-04 01:30N 40°43' W 073°56'1 2.3
2017-Oct-04 01:00N 40°44' W 073°56'1 2.4
2017-Oct-04 00:30N 40°44' W 073°58'4 7.4
2017-Oct-04 00:00N 40°41' W 074°01'3 6.6
2017-Oct-03 23:30N 40°39' W 074°05'3 6.4
2017-Oct-03 23:01N 40°39' W 074°09'3 5.1
2017-Oct-03 22:30N 40°41' W 074°08'3 5.4
2017-Oct-03 21:58N 40°38' W 074°09'0 0.0
2017-Oct-03 20:41N 40°38' W 074°09'0 0.0
2017-Oct-03 20:29N 40°38' W 074°09'0 0.0
2017-Oct-03 19:53N 40°38' W 074°09'0 0.0
2017-Oct-03 19:30N 40°38' W 074°09'0 0.0
2017-Oct-03 19:00N 40°38' W 074°09'1 2.9
2017-Oct-03 18:31N 40°39' W 074°11'3 6.1
2017-Oct-03 18:00N 40°36' W 074°12'2 4.6
2017-Oct-03 17:30N 40°34' W 074°14'1 2.5
2017-Oct-03 17:00N 40°34' W 074°13'5 9.3
2017-Oct-03 16:30N 40°39' W 074°11'4 8.6
2017-Oct-03 16:00N 40°39' W 074°05'5 9.6
2017-Oct-03 15:31N 40°42' W 074°00'611.6
2017-Oct-03 15:00N 40°47' W 073°56'4 3.4
2017-Oct-03 13:59N 40°49' W 073°52'2 3.4
2017-Oct-03 13:30N 40°48' W 073°54'2 4.6
2017-Oct-03 13:00N 40°46' W 073°56'3 5.9
2017-Oct-03 12:31N 40°44' W 073°58'3 6.7
2017-Oct-03 12:00N 40°41' W 074°01'4 7.1
2017-Oct-03 11:30N 40°39' W 074°05'3 5.4
2017-Oct-03 11:00N 40°39' W 074°08'1 1.4
2017-Oct-03 10:20N 40°38' W 074°09'0 0.0
2017-Oct-03 09:56N 40°38' W 074°09'0 0.0
2017-Oct-03 09:29N 40°38' W 074°09'0 0.0
2017-Oct-03 08:59N 40°38' W 074°09'0 0.0
2017-Oct-03 08:29N 40°38' W 074°09'0 0.0
2017-Oct-03 07:59N 40°38' W 074°09'0 0.0
2017-Oct-03 07:20N 40°38' W 074°09'0 0.0
2017-Oct-03 06:56N 40°38' W 074°09'0 0.0
2017-Oct-03 06:26N 40°38' W 074°09'0 0.0
2017-Oct-03 05:56N 40°38' W 074°09'0 0.1
2017-Oct-03 05:30N 40°38' W 074°09'1 2.9
2017-Oct-03 05:00N 40°40' W 074°09'1 2.8
2017-Oct-03 04:30N 40°41' W 074°08'1 1.7
2017-Oct-03 04:01N 40°40' W 074°08'2 3.6
2017-Oct-03 03:31N 40°39' W 074°09'2 3.8
2017-Oct-03 03:00N 40°39' W 074°06'2 4.0
2017-Oct-03 02:30N 40°40' W 074°04'3 5.6
2017-Oct-03 02:00N 40°42' W 074°01'3 6.5
2017-Oct-03 01:31N 40°44' W 073°58'2 3.6
2017-Oct-03 01:00N 40°44' W 073°56'0 0.4
2017-Oct-03 00:30N 40°43' W 073°56'2 3.8
2017-Oct-03 00:00N 40°44' W 073°58'5 8.8
2017-Oct-02 23:29N 40°41' W 074°02'4 9.2
2017-Oct-02 23:00N 40°39' W 074°07'  

Dump ship's entire track history